»·PEaware :: GSA1337 KPHX-KLGB

GSA1337 :: KPHX-KLGB

FLIGHT INFORMATION

Flight Status: Arrived
Operator:
Global Sim Alliance
More flights by this operator :: More flights under this callsign
Pilot: Brandon G. (13)
Aircraft: BOEING 737-800
(B738)
More flights by this aircraft type
Origin: KPHX Phoenix Sky Harbor Intl
United States
Destination: KLGB Long Beach
United States
More flights between these airports :: More routes between these airports
Route: +IZZZO6 HRRBR EMLLD DSNEE2
File this flight plan on PilotEdge
Remarks:
Altitude:
(Current/Filed)
32,000ft
Speed:
(Current/Filed)
425kts
Departed: 31-Dec-17 02:12 PM
Arrived: 31-Dec-17 03:14 PM
Distance/Time
Traveled:
307nm/1:02
Distance/Time
To Go:
Arrived

Flight Plot

Page will automatically refresh every two minutes.

Flight plan parsing failed; only flown route is shown


Map Options




Map Legend


Flown Route
Filed Route
Departure Airport
Arrival Airport
Navaid (VOR, NDB)
Fix

Horizontal Profiles

Position Reports

Time Latitude Longitude Heading Altitude Ground
Speed
31-Dec-17 13:14 33.438375 -112.001598 199 1130ft 0kts
31-Dec-17 13:15 33.438375 -112.001598 199 1130ft 0kts
31-Dec-17 13:16 33.438375 -112.001598 199 1130ft 0kts
31-Dec-17 13:17 33.438375 -112.001598 199 1130ft 0kts
31-Dec-17 13:18 33.438375 -112.001598 199 1130ft 0kts
31-Dec-17 13:19 33.438375 -112.001598 199 1130ft 0kts
31-Dec-17 13:20 33.438375 -112.001598 199 1130ft 0kts
31-Dec-17 13:21 33.438375 -112.001598 199 1130ft 0kts
31-Dec-17 13:22 33.438375 -112.001598 199 1130ft 0kts
31-Dec-17 13:23 33.438375 -112.001598 199 1130ft 0kts
31-Dec-17 13:24 33.438375 -112.001598 199 1130ft 0kts
31-Dec-17 13:25 33.438375 -112.001598 199 1130ft 0kts
31-Dec-17 13:26 33.438375 -112.001598 199 1130ft 0kts
31-Dec-17 13:27 33.438375 -112.001598 199 1130ft 0kts
31-Dec-17 13:28 33.438375 -112.001598 199 1130ft 0kts
31-Dec-17 13:29 33.438375 -112.001598 199 1130ft 0kts
31-Dec-17 13:30 33.438375 -112.001598 199 1130ft 0kts
31-Dec-17 13:31 33.438375 -112.001598 199 1130ft 0kts
31-Dec-17 13:32 33.438375 -112.001598 199 1130ft 0kts
31-Dec-17 13:33 33.438375 -112.001598 199 1130ft 0kts
31-Dec-17 13:34 33.438375 -112.001598 199 1130ft 0kts
31-Dec-17 13:35 33.438375 -112.001598 199 1130ft 0kts
31-Dec-17 13:36 33.438375 -112.001598 199 1130ft 0kts
31-Dec-17 13:37 33.438375 -112.001598 199 1130ft 0kts
31-Dec-17 13:38 33.438375 -112.001598 199 1130ft 0kts
31-Dec-17 13:39 33.438375 -112.001598 199 1130ft 0kts
31-Dec-17 13:40 33.438375 -112.001598 199 1130ft 0kts
31-Dec-17 13:41 33.438375 -112.001598 199 1130ft 0kts
31-Dec-17 13:42 33.438375 -112.001598 199 1130ft 0kts
31-Dec-17 13:43 33.438375 -112.001598 199 1130ft 0kts
31-Dec-17 13:44 33.438375 -112.001598 199 1130ft 0kts
31-Dec-17 13:45 33.438375 -112.001598 199 1130ft 0kts
31-Dec-17 13:46 33.438375 -112.001598 199 1130ft 0kts
31-Dec-17 13:47 33.438375 -112.001598 199 1130ft 0kts
31-Dec-17 13:48 33.438375 -112.001598 199 1130ft 0kts
31-Dec-17 13:49 33.438375 -112.001598 199 1130ft 0kts
31-Dec-17 13:50 33.438375 -112.001598 199 1130ft 0kts
31-Dec-17 13:51 33.438375 -112.001598 199 1130ft 0kts
31-Dec-17 13:52 33.438375 -112.001598 199 1130ft 0kts
31-Dec-17 13:53 33.438375 -112.001598 199 1130ft 0kts
31-Dec-17 13:54 33.438376 -112.001598 199 1130ft 0kts
31-Dec-17 13:55 33.438438 -112.001570 214 1130ft 2kts
31-Dec-17 13:56 33.438459 -112.000905 281 1130ft 1kts
31-Dec-17 13:57 33.438456 -112.000888 281 1130ft 0kts
31-Dec-17 13:58 33.438456 -112.000888 281 1130ft 0kts
31-Dec-17 13:59 33.438456 -112.000888 281 1130ft 0kts
31-Dec-17 14:00 33.438456 -112.000888 281 1130ft 0kts
31-Dec-17 14:01 33.438456 -112.000888 281 1130ft 0kts
31-Dec-17 14:02 33.438456 -112.000888 281 1130ft 0kts
31-Dec-17 14:03 33.438456 -112.000888 281 1130ft 0kts
31-Dec-17 14:04 33.438456 -112.000888 281 1130ft 0kts
31-Dec-17 14:05 33.438456 -112.000888 281 1130ft 0kts
31-Dec-17 14:06 33.438456 -112.000888 281 1130ft 0kts
31-Dec-17 14:07 33.438456 -112.000888 281 1130ft 0kts
31-Dec-17 14:08 33.438507 -112.000952 332 1130ft 0kts
31-Dec-17 14:09 33.439042 -112.001966 270 1130ft 14kts
31-Dec-17 14:10 33.439017 -112.008752 269 1127ft 20kts
31-Dec-17 14:11 33.439009 -112.013382 270 1126ft 9kts
31-Dec-17 14:12 33.439011 -112.018144 270 1120ft 14kts
31-Dec-17 14:13 33.439045 -112.022910 271 1117ft 15kts
31-Dec-17 14:14 33.439030 -112.027596 270 1115ft 14kts
31-Dec-17 14:15 33.439735 -112.029664 358 1113ft 0kts
31-Dec-17 14:16 33.439735 -112.029664 358 1113ft 0kts
31-Dec-17 14:17 33.440266 -112.029675 359 1113ft 11kts
31-Dec-17 14:18 33.440874 -112.016000 89 1123ft 120kts
31-Dec-17 14:19 33.439943 -111.954954 92 3554ft 223kts
31-Dec-17 14:20 33.431201 -111.876339 119 6988ft 255kts
31-Dec-17 14:21 33.369990 -111.854036 211 10935ft 254kts
31-Dec-17 14:22 33.350950 -111.925388 282 14681ft 254kts
31-Dec-17 14:23 33.368540 -112.020802 279 16819ft 326kts
31-Dec-17 14:24 33.383938 -112.127560 278 19975ft 333kts
31-Dec-17 14:25 33.399153 -112.236901 278 20117ft 336kts
31-Dec-17 14:26 33.414510 -112.347112 278 21999ft 341kts
31-Dec-17 14:27 33.430360 -112.460225 278 25238ft 354kts
31-Dec-17 14:28 33.446758 -112.576524 278 28112ft 366kts
31-Dec-17 14:29 33.451683 -112.698933 269 30976ft 369kts
31-Dec-17 14:30 33.456018 -112.821847 280 32126ft 387kts
31-Dec-17 14:31 33.480466 -112.950750 281 32117ft 399kts
31-Dec-17 14:32 33.504267 -113.079812 281 32118ft 397kts
31-Dec-17 14:33 33.528080 -113.208972 280 32116ft 397kts
31-Dec-17 14:34 33.551950 -113.337750 281 32114ft 398kts
31-Dec-17 14:35 33.575946 -113.466627 281 32112ft 398kts
31-Dec-17 14:36 33.599998 -113.595647 281 32109ft 397kts
31-Dec-17 14:37 33.623860 -113.724835 280 32125ft 408kts
31-Dec-17 14:38 33.648814 -113.858775 282 32116ft 415kts
31-Dec-17 14:39 33.695970 -113.985458 292 32118ft 419kts
31-Dec-17 14:40 33.744917 -114.112122 291 32116ft 418kts
31-Dec-17 14:41 33.770024 -114.246072 276 32114ft 414kts
31-Dec-17 14:42 33.785105 -114.382965 277 32114ft 414kts
31-Dec-17 14:43 33.799918 -114.513558 277 32113ft 414kts
31-Dec-17 14:44 33.815591 -114.650360 277 32111ft 414kts
31-Dec-17 14:45 33.830878 -114.783128 277 32122ft 414kts
31-Dec-17 14:46 33.846920 -114.920559 277 32123ft 414kts
31-Dec-17 14:47 33.861570 -115.055691 276 32116ft 413kts
31-Dec-17 14:48 33.876266 -115.192453 277 32119ft 412kts
31-Dec-17 14:49 33.890999 -115.328619 276 32097ft 412kts
31-Dec-17 14:50 33.905933 -115.465213 277 32078ft 412kts
31-Dec-17 14:51 33.921017 -115.601747 277 32074ft 413kts
31-Dec-17 14:52 33.931801 -115.727536 274 32082ft 401kts
31-Dec-17 14:53 33.939885 -115.847443 274 31270ft 336kts
31-Dec-17 14:54 33.947486 -115.957564 274 29616ft 337kts
31-Dec-17 14:55 33.955663 -116.074252 275 27866ft 375kts
31-Dec-17 14:56 33.964352 -116.197402 274 26008ft 363kts
31-Dec-17 14:57 33.950896 -116.317122 263 24200ft 360kts
31-Dec-17 14:58 33.936319 -116.433514 263 22426ft 384kts
31-Dec-17 14:59 33.920730 -116.558980 263 20989ft 377kts
31-Dec-17 15:00 33.905434 -116.676769 262 18738ft 368kts
31-Dec-17 15:01 33.890467 -116.797963 263 16784ft 364kts
31-Dec-17 15:02 33.877508 -116.917083 263 14989ft 359kts
31-Dec-17 15:03 33.864555 -117.034902 263 13318ft 354kts
31-Dec-17 15:04 33.852162 -117.144357 263 11910ft 320kts
31-Dec-17 15:05 33.840301 -117.249468 263 10537ft 311kts
31-Dec-17 15:06 33.829410 -117.346524 263 9282ft 280kts
31-Dec-17 15:07 33.819496 -117.435551 263 8134ft 258kts
31-Dec-17 15:08 33.798045 -117.514183 250 7666ft 247kts
31-Dec-17 15:09 33.774248 -117.591390 251 7318ft 246kts
31-Dec-17 15:10 33.751482 -117.666628 250 6610ft 246kts
31-Dec-17 15:11 33.729051 -117.742147 250 5531ft 239kts
31-Dec-17 15:12 33.706975 -117.816344 250 4475ft 235kts
31-Dec-17 15:13 33.686425 -117.884743 250 3985ft 186kts
31-Dec-17 15:14 33.677991 -117.943521 281 4019ft 188kts
31-Dec-17 15:15 33.693781 -118.000796 312 2729ft 170kts
31-Dec-17 15:16 33.725043 -118.039365 313 2138ft 163kts
31-Dec-17 15:17 33.757299 -118.078247 313 2068ft 157kts
31-Dec-17 15:18 33.786858 -118.113980 312 970ft 154kts
31-Dec-17 15:19 33.815106 -118.148200 313 40ft 113kts
31-Dec-17 15:20 33.821314 -118.155175 13 51ft 19kts
31-Dec-17 15:21 33.821639 -118.151096 91 47ft 13kts
31-Dec-17 15:22 33.820852 -118.146986 182 42ft 10kts
31-Dec-17 15:23 33.819049 -118.146280 135 40ft 0kts
31-Dec-17 15:24 33.819049 -118.146280 135 40ft 0kts
31-Dec-17 15:25 33.819049 -118.146280 135 40ft 0kts
31-Dec-17 15:26 33.819049 -118.146280 135 40ft 0kts
31-Dec-17 15:27 33.819049 -118.146280 135 40ft 0kts
31-Dec-17 15:28 33.819049 -118.146280 135 40ft 0kts
31-Dec-17 15:29 33.819049 -118.146280 135 40ft 0kts

Navigation Log

Ident Type
Flight plan parsing failed, navigation log unavailable